sensor_id;sensor_type;location;lat;lon;timestamp;P1;durP1;ratioP1;P2;durP2;ratioP2
43088;SDS011;28709;52.030;5.652;2023-05-07T00:02:21;6.03;;;4.30;;
43088;SDS011;28709;52.030;5.652;2023-05-07T00:04:47;9.10;;;4.65;;
43088;SDS011;28709;52.030;5.652;2023-05-07T00:07:13;5.70;;;3.58;;
43088;SDS011;28709;52.030;5.652;2023-05-07T00:09:39;7.38;;;4.05;;
43088;SDS011;28709;52.030;5.652;2023-05-07T00:12:05;6.32;;;3.90;;
43088;SDS011;28709;52.030;5.652;2023-05-07T00:14:31;6.05;;;3.45;;
43088;SDS011;28709;52.030;5.652;2023-05-07T00:16:57;5.88;;;3.60;;
43088;SDS011;28709;52.030;5.652;2023-05-07T00:19:23;5.93;;;3.33;;
43088;SDS011;28709;52.030;5.652;2023-05-07T00:21:48;6.68;;;3.78;;
43088;SDS011;28709;52.030;5.652;2023-05-07T00:24:14;4.68;;;2.78;;
43088;SDS011;28709;52.030;5.652;2023-05-07T00:26:40;4.28;;;3.03;;
43088;SDS011;28709;52.030;5.652;2023-05-07T00:29:05;5.20;;;2.88;;
43088;SDS011;28709;52.030;5.652;2023-05-07T00:31:31;6.70;;;3.25;;
43088;SDS011;28709;52.030;5.652;2023-05-07T00:33:56;5.22;;;3.50;;
43088;SDS011;28709;52.030;5.652;2023-05-07T00:36:22;5.32;;;3.58;;
43088;SDS011;28709;52.030;5.652;2023-05-07T00:38:48;5.15;;;3.30;;
43088;SDS011;28709;52.030;5.652;2023-05-07T00:41:13;4.05;;;3.08;;
43088;SDS011;28709;52.030;5.652;2023-05-07T00:43:40;7.25;;;3.45;;
43088;SDS011;28709;52.030;5.652;2023-05-07T00:46:05;7.20;;;3.15;;
43088;SDS011;28709;52.030;5.652;2023-05-07T00:48:31;4.30;;;3.10;;
43088;SDS011;28709;52.030;5.652;2023-05-07T00:50:57;4.25;;;2.85;;
43088;SDS011;28709;52.030;5.652;2023-05-07T00:53:23;5.70;;;2.85;;
43088;SDS011;28709;52.030;5.652;2023-05-07T00:55:48;4.20;;;3.00;;
43088;SDS011;28709;52.030;5.652;2023-05-07T00:58:14;3.38;;;2.60;;
43088;SDS011;28709;52.030;5.652;2023-05-07T01:00:40;3.90;;;2.80;;
43088;SDS011;28709;52.030;5.652;2023-05-07T01:03:06;6.53;;;3.50;;
43088;SDS011;28709;52.030;5.652;2023-05-07T01:05:32;6.10;;;3.45;;
43088;SDS011;28709;52.030;5.652;2023-05-07T01:07:58;7.43;;;4.18;;
43088;SDS011;28709;52.030;5.652;2023-05-07T01:10:24;5.53;;;4.15;;
43088;SDS011;28709;52.030;5.652;2023-05-07T01:12:50;5.28;;;3.80;;
43088;SDS011;28709;52.030;5.652;2023-05-07T01:15:17;6.15;;;4.68;;
43088;SDS011;28709;52.030;5.652;2023-05-07T01:17:43;5.20;;;3.92;;
43088;SDS011;28709;52.030;5.652;2023-05-07T01:20:09;7.70;;;4.70;;
43088;SDS011;28709;52.030;5.652;2023-05-07T01:22:36;6.93;;;4.22;;
43088;SDS011;28709;52.030;5.652;2023-05-07T01:25:03;5.20;;;4.28;;
43088;SDS011;28709;52.030;5.652;2023-05-07T01:27:30;5.35;;;3.63;;
43088;SDS011;28709;52.030;5.652;2023-05-07T01:29:55;7.38;;;4.28;;
43088;SDS011;28709;52.030;5.652;2023-05-07T01:32:23;5.80;;;4.55;;
43088;SDS011;28709;52.030;5.652;2023-05-07T01:34:54;5.03;;;3.33;;
43088;SDS011;28709;52.030;5.652;2023-05-07T01:37:22;4.13;;;3.28;;
43088;SDS011;28709;52.030;5.652;2023-05-07T01:39:49;4.15;;;3.30;;
43088;SDS011;28709;52.030;5.652;2023-05-07T01:42:15;4.47;;;3.40;;
43088;SDS011;28709;52.030;5.652;2023-05-07T01:44:41;4.00;;;2.95;;
43088;SDS011;28709;52.030;5.652;2023-05-07T01:47:07;4.47;;;3.30;;
43088;SDS011;28709;52.030;5.652;2023-05-07T01:49:34;4.93;;;3.65;;
43088;SDS011;28709;52.030;5.652;2023-05-07T01:51:59;4.18;;;2.95;;
43088;SDS011;28709;52.030;5.652;2023-05-07T01:54:26;6.38;;;3.65;;
43088;SDS011;28709;52.030;5.652;2023-05-07T01:56:58;6.72;;;4.53;;
43088;SDS011;28709;52.030;5.652;2023-05-07T01:59:24;6.25;;;4.80;;
43088;SDS011;28709;52.030;5.652;2023-05-07T02:01:50;6.15;;;4.57;;
43088;SDS011;28709;52.030;5.652;2023-05-07T02:04:16;7.20;;;5.60;;
43088;SDS011;28709;52.030;5.652;2023-05-07T02:06:42;4.90;;;3.90;;
43088;SDS011;28709;52.030;5.652;2023-05-07T02:09:08;6.07;;;5.15;;
43088;SDS011;28709;52.030;5.652;2023-05-07T02:11:34;5.80;;;4.63;;
43088;SDS011;28709;52.030;5.652;2023-05-07T02:13:59;6.50;;;4.35;;
43088;SDS011;28709;52.030;5.652;2023-05-07T02:16:25;4.50;;;3.85;;
43088;SDS011;28709;52.030;5.652;2023-05-07T02:18:51;4.13;;;3.42;;
43088;SDS011;28709;52.030;5.652;2023-05-07T02:21:17;5.95;;;4.05;;
43088;SDS011;28709;52.030;5.652;2023-05-07T02:23:42;4.88;;;3.58;;
43088;SDS011;28709;52.030;5.652;2023-05-07T02:26:08;5.30;;;3.45;;
43088;SDS011;28709;52.030;5.652;2023-05-07T02:28:34;6.28;;;3.92;;
43088;SDS011;28709;52.030;5.652;2023-05-07T02:31:02;4.60;;;3.50;;
43088;SDS011;28709;52.030;5.652;2023-05-07T02:33:31;5.20;;;3.90;;
43088;SDS011;28709;52.030;5.652;2023-05-07T02:35:56;4.82;;;3.70;;
43088;SDS011;28709;52.030;5.652;2023-05-07T02:38:29;4.10;;;3.60;;
43088;SDS011;28709;52.030;5.652;2023-05-07T02:40:55;5.18;;;3.90;;
43088;SDS011;28709;52.030;5.652;2023-05-07T02:43:21;4.97;;;3.38;;
43088;SDS011;28709;52.030;5.652;2023-05-07T02:45:46;5.18;;;3.90;;
43088;SDS011;28709;52.030;5.652;2023-05-07T02:48:12;5.50;;;3.72;;
43088;SDS011;28709;52.030;5.652;2023-05-07T02:50:37;4.40;;;3.90;;
43088;SDS011;28709;52.030;5.652;2023-05-07T02:53:03;5.22;;;3.90;;
43088;SDS011;28709;52.030;5.652;2023-05-07T02:55:29;6.10;;;4.85;;
43088;SDS011;28709;52.030;5.652;2023-05-07T02:57:55;7.88;;;5.80;;
43088;SDS011;28709;52.030;5.652;2023-05-07T03:00:21;6.30;;;5.63;;
43088;SDS011;28709;52.030;5.652;2023-05-07T03:02:46;9.15;;;6.55;;
43088;SDS011;28709;52.030;5.652;2023-05-07T03:05:12;8.00;;;6.00;;
43088;SDS011;28709;52.030;5.652;2023-05-07T03:07:39;9.57;;;6.15;;
43088;SDS011;28709;52.030;5.652;2023-05-07T03:10:06;6.65;;;5.40;;
43088;SDS011;28709;52.030;5.652;2023-05-07T03:12:31;8.70;;;6.55;;
43088;SDS011;28709;52.030;5.652;2023-05-07T03:14:57;8.15;;;5.95;;
43088;SDS011;28709;52.030;5.652;2023-05-07T03:17:23;8.63;;;5.68;;
43088;SDS011;28709;52.030;5.652;2023-05-07T03:19:48;7.20;;;5.10;;
43088;SDS011;28709;52.030;5.652;2023-05-07T03:22:14;6.95;;;4.68;;
43088;SDS011;28709;52.030;5.652;2023-05-07T03:24:40;6.60;;;4.40;;
43088;SDS011;28709;52.030;5.652;2023-05-07T03:27:05;5.38;;;4.22;;
43088;SDS011;28709;52.030;5.652;2023-05-07T03:29:31;5.75;;;4.35;;
43088;SDS011;28709;52.030;5.652;2023-05-07T03:31:57;6.28;;;4.78;;
43088;SDS011;28709;52.030;5.652;2023-05-07T03:34:22;5.97;;;4.82;;
43088;SDS011;28709;52.030;5.652;2023-05-07T03:36:48;8.25;;;5.53;;
43088;SDS011;28709;52.030;5.652;2023-05-07T03:39:14;9.82;;;6.47;;
43088;SDS011;28709;52.030;5.652;2023-05-07T03:41:40;8.68;;;5.88;;
43088;SDS011;28709;52.030;5.652;2023-05-07T03:44:06;8.10;;;6.13;;
43088;SDS011;28709;52.030;5.652;2023-05-07T03:46:32;9.60;;;6.70;;
43088;SDS011;28709;52.030;5.652;2023-05-07T03:48:58;10.23;;;6.43;;
43088;SDS011;28709;52.030;5.652;2023-05-07T03:51:24;7.82;;;5.80;;
43088;SDS011;28709;52.030;5.652;2023-05-07T03:53:50;7.90;;;5.82;;
43088;SDS011;28709;52.030;5.652;2023-05-07T03:56:18;7.55;;;5.28;;
43088;SDS011;28709;52.030;5.652;2023-05-07T03:58:44;7.40;;;5.53;;
43088;SDS011;28709;52.030;5.652;2023-05-07T04:01:10;8.25;;;5.72;;
43088;SDS011;28709;52.030;5.652;2023-05-07T04:03:37;6.88;;;5.47;;
43088;SDS011;28709;52.030;5.652;2023-05-07T04:06:02;6.35;;;5.30;;
43088;SDS011;28709;52.030;5.652;2023-05-07T04:08:28;7.90;;;5.30;;
43088;SDS011;28709;52.030;5.652;2023-05-07T04:10:57;7.75;;;5.72;;
43088;SDS011;28709;52.030;5.652;2023-05-07T04:13:23;10.13;;;6.72;;
43088;SDS011;28709;52.030;5.652;2023-05-07T04:15:50;8.80;;;6.65;;
43088;SDS011;28709;52.030;5.652;2023-05-07T04:18:17;8.80;;;6.38;;
43088;SDS011;28709;52.030;5.652;2023-05-07T04:20:43;9.05;;;7.20;;
43088;SDS011;28709;52.030;5.652;2023-05-07T04:23:08;9.75;;;7.45;;
43088;SDS011;28709;52.030;5.652;2023-05-07T04:25:34;8.93;;;6.85;;
43088;SDS011;28709;52.030;5.652;2023-05-07T04:28:00;8.23;;;6.28;;
43088;SDS011;28709;52.030;5.652;2023-05-07T04:30:26;7.82;;;5.93;;
43088;SDS011;28709;52.030;5.652;2023-05-07T04:32:52;10.70;;;7.60;;
43088;SDS011;28709;52.030;5.652;2023-05-07T04:35:18;7.32;;;6.07;;
43088;SDS011;28709;52.030;5.652;2023-05-07T04:37:44;8.10;;;5.85;;
43088;SDS011;28709;52.030;5.652;2023-05-07T04:40:09;8.68;;;5.78;;
43088;SDS011;28709;52.030;5.652;2023-05-07T04:42:35;9.50;;;6.35;;
43088;SDS011;28709;52.030;5.652;2023-05-07T04:45:01;9.25;;;6.10;;
43088;SDS011;28709;52.030;5.652;2023-05-07T04:47:27;7.63;;;5.95;;
43088;SDS011;28709;52.030;5.652;2023-05-07T04:49:53;8.27;;;6.10;;
43088;SDS011;28709;52.030;5.652;2023-05-07T04:52:18;6.70;;;4.70;;
43088;SDS011;28709;52.030;5.652;2023-05-07T04:54:44;16.13;;;7.72;;
43088;SDS011;28709;52.030;5.652;2023-05-07T04:57:10;9.80;;;7.38;;
43088;SDS011;28709;52.030;5.652;2023-05-07T04:59:35;8.90;;;6.43;;
43088;SDS011;28709;52.030;5.652;2023-05-07T05:02:01;6.78;;;5.60;;
43088;SDS011;28709;52.030;5.652;2023-05-07T05:04:29;8.23;;;6.57;;
43088;SDS011;28709;52.030;5.652;2023-05-07T05:06:55;7.55;;;5.65;;
43088;SDS011;28709;52.030;5.652;2023-05-07T05:09:21;7.75;;;6.20;;
43088;SDS011;28709;52.030;5.652;2023-05-07T05:11:46;8.73;;;7.03;;
43088;SDS011;28709;52.030;5.652;2023-05-07T05:14:12;8.88;;;6.80;;
43088;SDS011;28709;52.030;5.652;2023-05-07T05:16:38;6.50;;;5.78;;
43088;SDS011;28709;52.030;5.652;2023-05-07T05:19:03;9.07;;;6.05;;
43088;SDS011;28709;52.030;5.652;2023-05-07T05:21:29;7.85;;;6.03;;
43088;SDS011;28709;52.030;5.652;2023-05-07T05:23:55;8.07;;;6.63;;
43088;SDS011;28709;52.030;5.652;2023-05-07T05:26:21;6.68;;;5.50;;
43088;SDS011;28709;52.030;5.652;2023-05-07T05:28:47;8.70;;;6.18;;
43088;SDS011;28709;52.030;5.652;2023-05-07T05:31:12;8.35;;;6.13;;
43088;SDS011;28709;52.030;5.652;2023-05-07T05:33:39;10.07;;;7.05;;
43088;SDS011;28709;52.030;5.652;2023-05-07T05:36:05;13.43;;;9.88;;
43088;SDS011;28709;52.030;5.652;2023-05-07T05:38:31;11.27;;;7.43;;
43088;SDS011;28709;52.030;5.652;2023-05-07T05:40:57;8.23;;;7.22;;
43088;SDS011;28709;52.030;5.652;2023-05-07T05:43:22;11.07;;;8.35;;
43088;SDS011;28709;52.030;5.652;2023-05-07T05:45:48;9.27;;;7.20;;
43088;SDS011;28709;52.030;5.652;2023-05-07T05:48:14;10.80;;;7.90;;
43088;SDS011;28709;52.030;5.652;2023-05-07T05:50:41;7.78;;;6.97;;
43088;SDS011;28709;52.030;5.652;2023-05-07T05:53:07;14.13;;;8.05;;
43088;SDS011;28709;52.030;5.652;2023-05-07T05:55:33;12.02;;;7.20;;
43088;SDS011;28709;52.030;5.652;2023-05-07T05:58:01;9.98;;;8.13;;
43088;SDS011;28709;52.030;5.652;2023-05-07T06:00:29;9.38;;;7.22;;
43088;SDS011;28709;52.030;5.652;2023-05-07T06:02:55;12.65;;;10.13;;
43088;SDS011;28709;52.030;5.652;2023-05-07T06:05:20;15.18;;;8.88;;
43088;SDS011;28709;52.030;5.652;2023-05-07T06:07:46;12.15;;;7.50;;
43088;SDS011;28709;52.030;5.652;2023-05-07T06:10:11;13.30;;;9.18;;
43088;SDS011;28709;52.030;5.652;2023-05-07T06:12:37;7.97;;;6.80;;
43088;SDS011;28709;52.030;5.652;2023-05-07T06:15:03;7.90;;;6.55;;
43088;SDS011;28709;52.030;5.652;2023-05-07T06:17:29;11.60;;;7.75;;
43088;SDS011;28709;52.030;5.652;2023-05-07T06:19:55;9.88;;;7.63;;
43088;SDS011;28709;52.030;5.652;2023-05-07T06:22:21;8.68;;;7.55;;
43088;SDS011;28709;52.030;5.652;2023-05-07T06:24:47;9.05;;;6.80;;
43088;SDS011;28709;52.030;5.652;2023-05-07T06:27:12;9.82;;;7.82;;
43088;SDS011;28709;52.030;5.652;2023-05-07T06:29:38;9.10;;;7.80;;
43088;SDS011;28709;52.030;5.652;2023-05-07T06:32:07;11.02;;;8.93;;
43088;SDS011;28709;52.030;5.652;2023-05-07T06:34:36;10.25;;;8.57;;
43088;SDS011;28709;52.030;5.652;2023-05-07T06:37:03;8.75;;;7.15;;
43088;SDS011;28709;52.030;5.652;2023-05-07T06:39:28;10.80;;;7.70;;
43088;SDS011;28709;52.030;5.652;2023-05-07T06:41:54;9.07;;;7.68;;
43088;SDS011;28709;52.030;5.652;2023-05-07T06:44:20;8.50;;;7.28;;
43088;SDS011;28709;52.030;5.652;2023-05-07T06:46:45;10.43;;;7.47;;
43088;SDS011;28709;52.030;5.652;2023-05-07T06:49:14;6.88;;;5.88;;
43088;SDS011;28709;52.030;5.652;2023-05-07T06:51:40;8.50;;;6.13;;
43088;SDS011;28709;52.030;5.652;2023-05-07T06:54:06;7.25;;;6.40;;
43088;SDS011;28709;52.030;5.652;2023-05-07T06:56:32;8.40;;;6.45;;
43088;SDS011;28709;52.030;5.652;2023-05-07T06:58:59;8.82;;;6.78;;
43088;SDS011;28709;52.030;5.652;2023-05-07T07:01:25;9.02;;;7.10;;
43088;SDS011;28709;52.030;5.652;2023-05-07T07:03:51;9.63;;;6.43;;
43088;SDS011;28709;52.030;5.652;2023-05-07T07:06:17;9.23;;;7.72;;
43088;SDS011;28709;52.030;5.652;2023-05-07T07:08:42;13.43;;;10.98;;
43088;SDS011;28709;52.030;5.652;2023-05-07T07:11:09;12.52;;;9.20;;
43088;SDS011;28709;52.030;5.652;2023-05-07T07:13:35;10.75;;;8.68;;
43088;SDS011;28709;52.030;5.652;2023-05-07T07:16:01;9.38;;;7.25;;
43088;SDS011;28709;52.030;5.652;2023-05-07T07:18:26;7.55;;;5.85;;
43088;SDS011;28709;52.030;5.652;2023-05-07T07:20:52;7.80;;;6.25;;
43088;SDS011;28709;52.030;5.652;2023-05-07T07:23:18;8.82;;;6.97;;
43088;SDS011;28709;52.030;5.652;2023-05-07T07:25:44;11.95;;;8.75;;
43088;SDS011;28709;52.030;5.652;2023-05-07T07:28:10;8.75;;;6.88;;
43088;SDS011;28709;52.030;5.652;2023-05-07T07:30:36;9.57;;;7.05;;
43088;SDS011;28709;52.030;5.652;2023-05-07T07:33:02;8.65;;;7.00;;
43088;SDS011;28709;52.030;5.652;2023-05-07T07:35:28;10.77;;;8.65;;
43088;SDS011;28709;52.030;5.652;2023-05-07T07:37:55;11.95;;;8.98;;
43088;SDS011;28709;52.030;5.652;2023-05-07T07:40:20;10.80;;;8.73;;
43088;SDS011;28709;52.030;5.652;2023-05-07T07:42:46;14.63;;;10.55;;
43088;SDS011;28709;52.030;5.652;2023-05-07T07:45:12;13.60;;;10.63;;
43088;SDS011;28709;52.030;5.652;2023-05-07T07:47:38;9.82;;;8.45;;
43088;SDS011;28709;52.030;5.652;2023-05-07T07:50:07;13.77;;;11.15;;
43088;SDS011;28709;52.030;5.652;2023-05-07T07:52:33;13.80;;;10.82;;
43088;SDS011;28709;52.030;5.652;2023-05-07T07:54:59;14.57;;;11.98;;
43088;SDS011;28709;52.030;5.652;2023-05-07T07:57:25;12.55;;;8.90;;
43088;SDS011;28709;52.030;5.652;2023-05-07T07:59:50;16.55;;;12.70;;
43088;SDS011;28709;52.030;5.652;2023-05-07T08:02:16;16.10;;;10.77;;
43088;SDS011;28709;52.030;5.652;2023-05-07T08:04:42;13.38;;;9.95;;
43088;SDS011;28709;52.030;5.652;2023-05-07T08:07:08;13.48;;;11.55;;
43088;SDS011;28709;52.030;5.652;2023-05-07T08:09:35;12.43;;;10.27;;
43088;SDS011;28709;52.030;5.652;2023-05-07T08:12:02;15.05;;;12.70;;
43088;SDS011;28709;52.030;5.652;2023-05-07T08:14:28;11.25;;;8.85;;
43088;SDS011;28709;52.030;5.652;2023-05-07T08:16:54;12.77;;;9.95;;
43088;SDS011;28709;52.030;5.652;2023-05-07T08:19:20;11.68;;;9.80;;
43088;SDS011;28709;52.030;5.652;2023-05-07T08:21:46;13.88;;;11.38;;
43088;SDS011;28709;52.030;5.652;2023-05-07T08:24:13;10.60;;;8.90;;
43088;SDS011;28709;52.030;5.652;2023-05-07T08:26:39;14.65;;;10.63;;
43088;SDS011;28709;52.030;5.652;2023-05-07T08:29:05;12.95;;;10.73;;
43088;SDS011;28709;52.030;5.652;2023-05-07T08:31:31;9.52;;;8.25;;
43088;SDS011;28709;52.030;5.652;2023-05-07T08:33:57;12.77;;;11.35;;
43088;SDS011;28709;52.030;5.652;2023-05-07T08:36:23;14.68;;;10.40;;
43088;SDS011;28709;52.030;5.652;2023-05-07T08:38:50;13.02;;;9.52;;
43088;SDS011;28709;52.030;5.652;2023-05-07T08:41:16;10.27;;;8.70;;
43088;SDS011;28709;52.030;5.652;2023-05-07T08:43:42;13.90;;;10.35;;
43088;SDS011;28709;52.030;5.652;2023-05-07T08:46:12;11.75;;;8.75;;
43088;SDS011;28709;52.030;5.652;2023-05-07T08:48:47;10.37;;;9.27;;
43088;SDS011;28709;52.030;5.652;2023-05-07T08:51:15;9.20;;;8.05;;
43088;SDS011;28709;52.030;5.652;2023-05-07T08:53:42;8.95;;;8.02;;
43088;SDS011;28709;52.030;5.652;2023-05-07T08:56:09;14.48;;;11.25;;
43088;SDS011;28709;52.030;5.652;2023-05-07T08:58:35;12.10;;;10.75;;
43088;SDS011;28709;52.030;5.652;2023-05-07T09:01:07;11.00;;;9.45;;
43088;SDS011;28709;52.030;5.652;2023-05-07T09:06:01;12.13;;;9.80;;
43088;SDS011;28709;52.030;5.652;2023-05-07T09:08:26;12.90;;;10.57;;
43088;SDS011;28709;52.030;5.652;2023-05-07T09:10:52;13.57;;;10.05;;
43088;SDS011;28709;52.030;5.652;2023-05-07T09:13:18;12.48;;;9.82;;
43088;SDS011;28709;52.030;5.652;2023-05-07T09:15:44;15.63;;;11.82;;
43088;SDS011;28709;52.030;5.652;2023-05-07T09:18:10;13.20;;;10.55;;
43088;SDS011;28709;52.030;5.652;2023-05-07T09:20:37;15.05;;;11.52;;
43088;SDS011;28709;52.030;5.652;2023-05-07T09:23:05;13.63;;;10.57;;
43088;SDS011;28709;52.030;5.652;2023-05-07T09:25:32;12.00;;;9.02;;
43088;SDS011;28709;52.030;5.652;2023-05-07T09:28:02;11.27;;;8.32;;
43088;SDS011;28709;52.030;5.652;2023-05-07T09:30:29;10.88;;;9.18;;
43088;SDS011;28709;52.030;5.652;2023-05-07T09:32:57;8.82;;;7.18;;
43088;SDS011;28709;52.030;5.652;2023-05-07T09:35:24;19.02;;;8.77;;
43088;SDS011;28709;52.030;5.652;2023-05-07T09:37:55;10.75;;;8.48;;
43088;SDS011;28709;52.030;5.652;2023-05-07T09:40:26;13.45;;;8.63;;
43088;SDS011;28709;52.030;5.652;2023-05-07T09:42:54;12.43;;;7.60;;
43088;SDS011;28709;52.030;5.652;2023-05-07T09:45:26;8.68;;;6.78;;
43088;SDS011;28709;52.030;5.652;2023-05-07T09:47:56;11.75;;;7.85;;
43088;SDS011;28709;52.030;5.652;2023-05-07T09:50:27;13.05;;;8.52;;
43088;SDS011;28709;52.030;5.652;2023-05-07T09:52:54;17.13;;;9.02;;
43088;SDS011;28709;52.030;5.652;2023-05-07T09:55:21;9.88;;;6.43;;
43088;SDS011;28709;52.030;5.652;2023-05-07T09:57:51;8.18;;;5.70;;
43088;SDS011;28709;52.030;5.652;2023-05-07T10:00:21;6.82;;;5.20;;
43088;SDS011;28709;52.030;5.652;2023-05-07T10:02:48;11.18;;;7.18;;
43088;SDS011;28709;52.030;5.652;2023-05-07T10:05:16;6.57;;;5.57;;
43088;SDS011;28709;52.030;5.652;2023-05-07T10:07:43;11.13;;;6.18;;
43088;SDS011;28709;52.030;5.652;2023-05-07T10:10:10;10.52;;;6.57;;
43088;SDS011;28709;52.030;5.652;2023-05-07T10:12:36;8.00;;;5.53;;
43088;SDS011;28709;52.030;5.652;2023-05-07T10:15:07;7.63;;;5.72;;
43088;SDS011;28709;52.030;5.652;2023-05-07T10:17:35;7.22;;;5.32;;
43088;SDS011;28709;52.030;5.652;2023-05-07T10:20:01;8.55;;;5.00;;
43088;SDS011;28709;52.030;5.652;2023-05-07T10:22:27;12.02;;;5.25;;
43088;SDS011;28709;52.030;5.652;2023-05-07T10:24:58;7.88;;;5.00;;
43088;SDS011;28709;52.030;5.652;2023-05-07T10:27:27;5.22;;;3.58;;
43088;SDS011;28709;52.030;5.652;2023-05-07T10:30:00;7.82;;;4.95;;
43088;SDS011;28709;52.030;5.652;2023-05-07T10:32:59;9.20;;;6.03;;
43088;SDS011;28709;52.030;5.652;2023-05-07T10:35:31;9.18;;;5.40;;
43088;SDS011;28709;52.030;5.652;2023-05-07T10:38:03;7.88;;;4.35;;
43088;SDS011;28709;52.030;5.652;2023-05-07T10:40:30;6.68;;;4.55;;
43088;SDS011;28709;52.030;5.652;2023-05-07T10:42:57;8.27;;;3.83;;
43088;SDS011;28709;52.030;5.652;2023-05-07T10:45:27;5.43;;;3.22;;
43088;SDS011;28709;52.030;5.652;2023-05-07T10:50:35;5.35;;;3.60;;
43088;SDS011;28709;52.030;5.652;2023-05-07T10:55:46;7.30;;;3.70;;
43088;SDS011;28709;52.030;5.652;2023-05-07T10:58:23;6.72;;;3.38;;
43088;SDS011;28709;52.030;5.652;2023-05-07T11:00:55;5.38;;;3.40;;
43088;SDS011;28709;52.030;5.652;2023-05-07T11:03:22;5.20;;;3.03;;
43088;SDS011;28709;52.030;5.652;2023-05-07T11:05:47;4.38;;;2.90;;
43088;SDS011;28709;52.030;5.652;2023-05-07T11:14:13;4.75;;;2.45;;
43088;SDS011;28709;52.030;5.652;2023-05-07T11:16:40;6.32;;;3.80;;
43088;SDS011;28709;52.030;5.652;2023-05-07T11:19:08;4.82;;;2.55;;
43088;SDS011;28709;52.030;5.652;2023-05-07T11:21:34;5.53;;;2.95;;
43088;SDS011;28709;52.030;5.652;2023-05-07T11:24:05;4.63;;;2.80;;
43088;SDS011;28709;52.030;5.652;2023-05-07T11:26:45;5.30;;;2.85;;
43088;SDS011;28709;52.030;5.652;2023-05-07T11:29:12;3.92;;;2.63;;
43088;SDS011;28709;52.030;5.652;2023-05-07T11:31:40;6.53;;;3.38;;
43088;SDS011;28709;52.030;5.652;2023-05-07T11:34:05;5.20;;;2.30;;
43088;SDS011;28709;52.030;5.652;2023-05-07T11:36:32;3.00;;;2.10;;
43088;SDS011;28709;52.030;5.652;2023-05-07T11:38:58;4.32;;;2.25;;
43088;SDS011;28709;52.030;5.652;2023-05-07T11:41:36;4.47;;;2.92;;
43088;SDS011;28709;52.030;5.652;2023-05-07T11:44:02;5.43;;;2.70;;
43088;SDS011;28709;52.030;5.652;2023-05-07T11:46:28;2.95;;;2.25;;
43088;SDS011;28709;52.030;5.652;2023-05-07T11:48:54;3.35;;;2.42;;
43088;SDS011;28709;52.030;5.652;2023-05-07T11:51:21;5.00;;;2.50;;
43088;SDS011;28709;52.030;5.652;2023-05-07T11:53:48;3.22;;;1.90;;
43088;SDS011;28709;52.030;5.652;2023-05-07T11:56:15;4.25;;;2.50;;
43088;SDS011;28709;52.030;5.652;2023-05-07T11:58:42;4.90;;;2.58;;
43088;SDS011;28709;52.030;5.652;2023-05-07T12:01:09;5.85;;;3.00;;
43088;SDS011;28709;52.030;5.652;2023-05-07T12:03:37;3.38;;;2.20;;
43088;SDS011;28709;52.030;5.652;2023-05-07T12:06:07;3.50;;;2.53;;
43088;SDS011;28709;52.030;5.652;2023-05-07T12:08:35;4.30;;;2.83;;
43088;SDS011;28709;52.030;5.652;2023-05-07T12:11:02;5.07;;;3.85;;
43088;SDS011;28709;52.030;5.652;2023-05-07T12:13:28;3.85;;;2.90;;
43088;SDS011;28709;52.030;5.652;2023-05-07T12:15:55;3.08;;;2.78;;
43088;SDS011;28709;52.030;5.652;2023-05-07T12:18:21;3.53;;;2.95;;
43088;SDS011;28709;52.030;5.652;2023-05-07T12:20:48;5.30;;;3.38;;
43088;SDS011;28709;52.030;5.652;2023-05-07T12:23:14;4.82;;;3.42;;
43088;SDS011;28709;52.030;5.652;2023-05-07T12:25:41;4.65;;;3.70;;
43088;SDS011;28709;52.030;5.652;2023-05-07T12:28:14;6.32;;;4.35;;
43088;SDS011;28709;52.030;5.652;2023-05-07T12:30:44;9.35;;;4.60;;
43088;SDS011;28709;52.030;5.652;2023-05-07T12:33:10;5.57;;;3.50;;
43088;SDS011;28709;52.030;5.652;2023-05-07T12:35:38;4.97;;;3.55;;
43088;SDS011;28709;52.030;5.652;2023-05-07T12:38:12;7.63;;;5.20;;
43088;SDS011;28709;52.030;5.652;2023-05-07T12:40:40;6.05;;;4.13;;
43088;SDS011;28709;52.030;5.652;2023-05-07T12:43:07;4.95;;;3.45;;
43088;SDS011;28709;52.030;5.652;2023-05-07T12:45:36;4.78;;;3.50;;
43088;SDS011;28709;52.030;5.652;2023-05-07T12:48:03;6.30;;;4.63;;
43088;SDS011;28709;52.030;5.652;2023-05-07T12:50:32;5.55;;;3.50;;
43088;SDS011;28709;52.030;5.652;2023-05-07T12:52:58;7.35;;;4.05;;
43088;SDS011;28709;52.030;5.652;2023-05-07T12:55:24;5.15;;;3.40;;
43088;SDS011;28709;52.030;5.652;2023-05-07T12:57:50;4.40;;;2.72;;
43088;SDS011;28709;52.030;5.652;2023-05-07T13:00:17;6.80;;;2.55;;
43088;SDS011;28709;52.030;5.652;2023-05-07T13:02:58;5.70;;;2.03;;
43088;SDS011;28709;52.030;5.652;2023-05-07T13:05:23;3.22;;;1.40;;
43088;SDS011;28709;52.030;5.652;2023-05-07T13:07:53;3.50;;;1.40;;
43088;SDS011;28709;52.030;5.652;2023-05-07T13:10:19;3.28;;;1.65;;
43088;SDS011;28709;52.030;5.652;2023-05-07T13:12:45;8.45;;;3.05;;
43088;SDS011;28709;52.030;5.652;2023-05-07T13:15:10;4.18;;;2.50;;
43088;SDS011;28709;52.030;5.652;2023-05-07T13:17:36;9.48;;;2.58;;
43088;SDS011;28709;52.030;5.652;2023-05-07T13:20:02;2.88;;;1.40;;
43088;SDS011;28709;52.030;5.652;2023-05-07T13:22:28;2.40;;;1.52;;
43088;SDS011;28709;52.030;5.652;2023-05-07T13:24:53;8.70;;;3.30;;
43088;SDS011;28709;52.030;5.652;2023-05-07T13:27:19;3.97;;;2.45;;
43088;SDS011;28709;52.030;5.652;2023-05-07T13:29:45;5.25;;;3.47;;
43088;SDS011;28709;52.030;5.652;2023-05-07T13:32:11;4.70;;;3.10;;
43088;SDS011;28709;52.030;5.652;2023-05-07T13:34:36;7.82;;;3.25;;
43088;SDS011;28709;52.030;5.652;2023-05-07T13:37:02;3.65;;;2.47;;
43088;SDS011;28709;52.030;5.652;2023-05-07T13:39:28;6.03;;;2.60;;
43088;SDS011;28709;52.030;5.652;2023-05-07T13:41:53;3.83;;;3.00;;
43088;SDS011;28709;52.030;5.652;2023-05-07T13:44:19;5.45;;;4.05;;
43088;SDS011;28709;52.030;5.652;2023-05-07T13:46:45;4.75;;;3.22;;
43088;SDS011;28709;52.030;5.652;2023-05-07T13:49:11;6.43;;;4.53;;
43088;SDS011;28709;52.030;5.652;2023-05-07T13:51:37;7.93;;;5.47;;
43088;SDS011;28709;52.030;5.652;2023-05-07T13:54:03;5.35;;;4.30;;
43088;SDS011;28709;52.030;5.652;2023-05-07T13:56:29;5.72;;;3.88;;
43088;SDS011;28709;52.030;5.652;2023-05-07T13:58:57;6.20;;;4.57;;
43088;SDS011;28709;52.030;5.652;2023-05-07T14:01:23;4.88;;;4.18;;
43088;SDS011;28709;52.030;5.652;2023-05-07T14:03:48;6.10;;;4.07;;
43088;SDS011;28709;52.030;5.652;2023-05-07T14:06:14;5.25;;;4.10;;
43088;SDS011;28709;52.030;5.652;2023-05-07T14:08:40;5.22;;;4.45;;
43088;SDS011;28709;52.030;5.652;2023-05-07T14:11:05;6.28;;;5.15;;
43088;SDS011;28709;52.030;5.652;2023-05-07T14:13:31;7.35;;;5.63;;
43088;SDS011;28709;52.030;5.652;2023-05-07T14:15:58;8.82;;;5.57;;
43088;SDS011;28709;52.030;5.652;2023-05-07T14:18:23;10.57;;;6.28;;
43088;SDS011;28709;52.030;5.652;2023-05-07T14:20:49;9.05;;;6.15;;
43088;SDS011;28709;52.030;5.652;2023-05-07T14:23:15;10.85;;;6.20;;
43088;SDS011;28709;52.030;5.652;2023-05-07T14:25:42;9.02;;;5.28;;
43088;SDS011;28709;52.030;5.652;2023-05-07T14:28:08;9.45;;;6.18;;
43088;SDS011;28709;52.030;5.652;2023-05-07T14:30:34;14.13;;;6.82;;
43088;SDS011;28709;52.030;5.652;2023-05-07T14:33:00;7.05;;;5.68;;
43088;SDS011;28709;52.030;5.652;2023-05-07T14:35:25;9.23;;;6.65;;
43088;SDS011;28709;52.030;5.652;2023-05-07T14:37:51;6.55;;;5.40;;
43088;SDS011;28709;52.030;5.652;2023-05-07T14:40:16;6.55;;;5.15;;
43088;SDS011;28709;52.030;5.652;2023-05-07T14:42:42;8.15;;;6.32;;
43088;SDS011;28709;52.030;5.652;2023-05-07T14:45:08;10.90;;;8.27;;
43088;SDS011;28709;52.030;5.652;2023-05-07T14:47:34;11.45;;;6.43;;
43088;SDS011;28709;52.030;5.652;2023-05-07T14:50:00;9.07;;;6.95;;
43088;SDS011;28709;52.030;5.652;2023-05-07T14:52:26;8.85;;;6.78;;
43088;SDS011;28709;52.030;5.652;2023-05-07T14:54:51;10.48;;;7.55;;